Terminal Aerodrome Forecast
Issued by NWS Nashville, TN

Home | Current Version | Previous Version | Text Only | Print | Product List | Glossary On
Versions: 1 2 3 4 5 6 7 8 9 10 11 12 13 14 15 16
000
FTUS44 KOHX 270524
TAFCSV
TAF
KCSV 270524Z 2706/2806 VRB04KT P6SM BKN150
     FM271100 00000KT 4SM BR SCT250
     FM271300 18006KT P6SM BKN150=

USA.gov is the U.S. government's official web portal to all federal, state and local government web resources and services.